sensor_id;sensor_type;location;lat;lon;timestamp;P1;durP1;ratioP1;P2;durP2;ratioP2
1545;SDS011;766;51.502;9.752;2022-11-24T00:01:52;7.28;;;4.50;;
1545;SDS011;766;51.502;9.752;2022-11-24T00:04:21;9.20;;;4.80;;
1545;SDS011;766;51.502;9.752;2022-11-24T00:06:51;10.77;;;5.45;;
1545;SDS011;766;51.502;9.752;2022-11-24T00:09:21;10.90;;;4.70;;
1545;SDS011;766;51.502;9.752;2022-11-24T00:11:50;10.63;;;5.28;;
1545;SDS011;766;51.502;9.752;2022-11-24T00:14:19;13.50;;;5.57;;
1545;SDS011;766;51.502;9.752;2022-11-24T00:16:48;10.82;;;5.35;;
1545;SDS011;766;51.502;9.752;2022-11-24T00:19:18;16.48;;;5.82;;
1545;SDS011;766;51.502;9.752;2022-11-24T00:21:46;11.85;;;6.32;;
1545;SDS011;766;51.502;9.752;2022-11-24T00:24:17;12.07;;;6.13;;
1545;SDS011;766;51.502;9.752;2022-11-24T00:26:48;9.18;;;5.18;;
1545;SDS011;766;51.502;9.752;2022-11-24T00:29:16;13.00;;;6.50;;
1545;SDS011;766;51.502;9.752;2022-11-24T00:31:47;14.20;;;5.55;;
1545;SDS011;766;51.502;9.752;2022-11-24T00:34:16;12.80;;;6.00;;
1545;SDS011;766;51.502;9.752;2022-11-24T00:36:45;14.88;;;6.00;;
1545;SDS011;766;51.502;9.752;2022-11-24T00:39:14;9.90;;;5.97;;
1545;SDS011;766;51.502;9.752;2022-11-24T00:41:45;12.75;;;5.90;;
1545;SDS011;766;51.502;9.752;2022-11-24T00:44:15;12.40;;;6.18;;
1545;SDS011;766;51.502;9.752;2022-11-24T00:46:44;12.75;;;5.97;;
1545;SDS011;766;51.502;9.752;2022-11-24T00:49:14;11.75;;;5.75;;
1545;SDS011;766;51.502;9.752;2022-11-24T00:51:45;14.32;;;6.28;;
1545;SDS011;766;51.502;9.752;2022-11-24T00:54:14;11.13;;;6.30;;
1545;SDS011;766;51.502;9.752;2022-11-24T00:56:46;16.65;;;6.50;;
1545;SDS011;766;51.502;9.752;2022-11-24T00:59:14;17.02;;;6.60;;
1545;SDS011;766;51.502;9.752;2022-11-24T01:01:42;14.75;;;7.68;;
1545;SDS011;766;51.502;9.752;2022-11-24T01:04:14;14.75;;;7.28;;
1545;SDS011;766;51.502;9.752;2022-11-24T01:06:44;24.88;;;10.10;;
1545;SDS011;766;51.502;9.752;2022-11-24T01:09:12;19.17;;;7.35;;
1545;SDS011;766;51.502;9.752;2022-11-24T01:11:41;17.33;;;7.97;;
1545;SDS011;766;51.502;9.752;2022-11-24T01:14:27;12.30;;;6.68;;
1545;SDS011;766;51.502;9.752;2022-11-24T01:16:55;15.25;;;6.88;;
1545;SDS011;766;51.502;9.752;2022-11-24T01:19:27;10.20;;;6.47;;
1545;SDS011;766;51.502;9.752;2022-11-24T01:21:55;17.58;;;6.68;;
1545;SDS011;766;51.502;9.752;2022-11-24T01:24:24;11.90;;;7.15;;
1545;SDS011;766;51.502;9.752;2022-11-24T01:26:52;19.10;;;7.78;;
1545;SDS011;766;51.502;9.752;2022-11-24T01:29:21;18.33;;;7.05;;
1545;SDS011;766;51.502;9.752;2022-11-24T01:31:51;17.02;;;7.28;;
1545;SDS011;766;51.502;9.752;2022-11-24T01:34:19;17.88;;;7.07;;
1545;SDS011;766;51.502;9.752;2022-11-24T01:36:50;17.35;;;7.90;;
1545;SDS011;766;51.502;9.752;2022-11-24T01:39:19;16.70;;;6.70;;
1545;SDS011;766;51.502;9.752;2022-11-24T01:41:49;11.55;;;6.63;;
1545;SDS011;766;51.502;9.752;2022-11-24T01:44:21;18.70;;;7.15;;
1545;SDS011;766;51.502;9.752;2022-11-24T01:46:54;16.02;;;6.88;;
1545;SDS011;766;51.502;9.752;2022-11-24T01:49:26;15.95;;;6.32;;
1545;SDS011;766;51.502;9.752;2022-11-24T01:52:07;12.30;;;6.75;;
1545;SDS011;766;51.502;9.752;2022-11-24T01:54:41;13.55;;;5.88;;
1545;SDS011;766;51.502;9.752;2022-11-24T01:57:15;16.13;;;6.28;;
1545;SDS011;766;51.502;9.752;2022-11-24T01:59:50;18.30;;;6.97;;
1545;SDS011;766;51.502;9.752;2022-11-24T02:02:21;14.05;;;5.80;;
1545;SDS011;766;51.502;9.752;2022-11-24T02:04:51;17.27;;;6.07;;
1545;SDS011;766;51.502;9.752;2022-11-24T02:07:22;12.25;;;5.22;;
1545;SDS011;766;51.502;9.752;2022-11-24T02:09:53;15.05;;;5.65;;
1545;SDS011;766;51.502;9.752;2022-11-24T02:12:25;16.23;;;6.32;;
1545;SDS011;766;51.502;9.752;2022-11-24T02:14:55;13.52;;;5.05;;
1545;SDS011;766;51.502;9.752;2022-11-24T02:17:25;20.02;;;4.28;;
1545;SDS011;766;51.502;9.752;2022-11-24T02:19:53;16.27;;;6.07;;
1545;SDS011;766;51.502;9.752;2022-11-24T02:22:30;11.13;;;4.57;;
1545;SDS011;766;51.502;9.752;2022-11-24T02:25:06;15.40;;;4.72;;
1545;SDS011;766;51.502;9.752;2022-11-24T02:27:43;18.85;;;5.32;;
1545;SDS011;766;51.502;9.752;2022-11-24T02:30:19;21.67;;;5.53;;
1545;SDS011;766;51.502;9.752;2022-11-24T02:32:49;18.63;;;4.95;;
1545;SDS011;766;51.502;9.752;2022-11-24T02:35:19;17.75;;;5.25;;
1545;SDS011;766;51.502;9.752;2022-11-24T02:37:50;14.77;;;4.32;;
1545;SDS011;766;51.502;9.752;2022-11-24T02:40:19;18.73;;;5.15;;
1545;SDS011;766;51.502;9.752;2022-11-24T02:42:52;14.18;;;5.90;;
1545;SDS011;766;51.502;9.752;2022-11-24T02:45:25;13.00;;;4.65;;
1545;SDS011;766;51.502;9.752;2022-11-24T02:47:56;18.65;;;5.05;;
1545;SDS011;766;51.502;9.752;2022-11-24T02:50:25;18.17;;;5.15;;
1545;SDS011;766;51.502;9.752;2022-11-24T02:52:53;12.30;;;4.75;;
1545;SDS011;766;51.502;9.752;2022-11-24T02:55:22;15.55;;;4.75;;
1545;SDS011;766;51.502;9.752;2022-11-24T02:57:53;13.65;;;5.55;;
1545;SDS011;766;51.502;9.752;2022-11-24T03:00:23;17.73;;;5.93;;
1545;SDS011;766;51.502;9.752;2022-11-24T03:02:51;14.38;;;5.30;;
1545;SDS011;766;51.502;9.752;2022-11-24T03:05:20;22.25;;;5.97;;
1545;SDS011;766;51.502;9.752;2022-11-24T03:07:50;14.63;;;5.30;;
1545;SDS011;766;51.502;9.752;2022-11-24T03:10:19;17.52;;;5.15;;
1545;SDS011;766;51.502;9.752;2022-11-24T03:12:50;20.00;;;5.93;;
1545;SDS011;766;51.502;9.752;2022-11-24T03:15:19;15.55;;;5.55;;
1545;SDS011;766;51.502;9.752;2022-11-24T03:17:49;13.05;;;5.05;;
1545;SDS011;766;51.502;9.752;2022-11-24T03:20:23;13.45;;;5.53;;
1545;SDS011;766;51.502;9.752;2022-11-24T03:22:52;15.93;;;5.68;;
1545;SDS011;766;51.502;9.752;2022-11-24T03:25:22;23.02;;;6.22;;
1545;SDS011;766;51.502;9.752;2022-11-24T03:27:51;12.07;;;5.38;;
1545;SDS011;766;51.502;9.752;2022-11-24T03:30:20;20.88;;;5.68;;
1545;SDS011;766;51.502;9.752;2022-11-24T03:32:50;14.88;;;5.95;;
1545;SDS011;766;51.502;9.752;2022-11-24T03:35:20;27.15;;;5.53;;
1545;SDS011;766;51.502;9.752;2022-11-24T03:37:50;16.48;;;6.15;;
1545;SDS011;766;51.502;9.752;2022-11-24T03:40:19;20.52;;;5.75;;
1545;SDS011;766;51.502;9.752;2022-11-24T03:42:47;17.15;;;4.93;;
1545;SDS011;766;51.502;9.752;2022-11-24T03:45:18;21.58;;;4.85;;
1545;SDS011;766;51.502;9.752;2022-11-24T03:48:09;12.52;;;4.72;;
1545;SDS011;766;51.502;9.752;2022-11-24T03:50:38;18.77;;;4.88;;
1545;SDS011;766;51.502;9.752;2022-11-24T03:53:08;19.52;;;5.43;;
1545;SDS011;766;51.502;9.752;2022-11-24T03:55:38;13.40;;;5.82;;
1545;SDS011;766;51.502;9.752;2022-11-24T03:58:09;16.73;;;5.63;;
1545;SDS011;766;51.502;9.752;2022-11-24T04:00:39;10.45;;;4.70;;
1545;SDS011;766;51.502;9.752;2022-11-24T04:03:07;16.33;;;5.07;;
1545;SDS011;766;51.502;9.752;2022-11-24T04:05:37;21.23;;;5.38;;
1545;SDS011;766;51.502;9.752;2022-11-24T04:08:05;15.38;;;5.13;;
1545;SDS011;766;51.502;9.752;2022-11-24T04:10:34;14.88;;;4.88;;
1545;SDS011;766;51.502;9.752;2022-11-24T04:13:04;15.82;;;4.88;;
1545;SDS011;766;51.502;9.752;2022-11-24T04:15:38;19.63;;;4.70;;
1545;SDS011;766;51.502;9.752;2022-11-24T04:18:10;19.23;;;4.75;;
1545;SDS011;766;51.502;9.752;2022-11-24T04:20:40;17.08;;;5.13;;
1545;SDS011;766;51.502;9.752;2022-11-24T04:23:08;21.92;;;5.25;;
1545;SDS011;766;51.502;9.752;2022-11-24T04:25:38;13.82;;;4.97;;
1545;SDS011;766;51.502;9.752;2022-11-24T04:28:09;13.93;;;4.90;;
1545;SDS011;766;51.502;9.752;2022-11-24T04:30:38;15.68;;;5.28;;
1545;SDS011;766;51.502;9.752;2022-11-24T04:33:15;24.73;;;6.28;;
1545;SDS011;766;51.502;9.752;2022-11-24T04:35:43;21.05;;;5.13;;
1545;SDS011;766;51.502;9.752;2022-11-24T04:38:12;18.05;;;4.88;;
1545;SDS011;766;51.502;9.752;2022-11-24T04:41:00;20.65;;;5.45;;
1545;SDS011;766;51.502;9.752;2022-11-24T04:43:29;25.98;;;5.10;;
1545;SDS011;766;51.502;9.752;2022-11-24T04:46:04;17.67;;;5.15;;
1545;SDS011;766;51.502;9.752;2022-11-24T04:48:38;26.33;;;5.25;;
1545;SDS011;766;51.502;9.752;2022-11-24T04:51:09;22.27;;;5.80;;
1545;SDS011;766;51.502;9.752;2022-11-24T04:53:39;19.40;;;5.80;;
1545;SDS011;766;51.502;9.752;2022-11-24T04:56:08;14.45;;;6.57;;
1545;SDS011;766;51.502;9.752;2022-11-24T04:58:37;14.55;;;5.20;;
1545;SDS011;766;51.502;9.752;2022-11-24T05:01:07;17.50;;;5.20;;
1545;SDS011;766;51.502;9.752;2022-11-24T05:03:40;20.55;;;5.43;;
1545;SDS011;766;51.502;9.752;2022-11-24T05:06:09;14.82;;;5.85;;
1545;SDS011;766;51.502;9.752;2022-11-24T05:08:37;18.70;;;5.15;;
1545;SDS011;766;51.502;9.752;2022-11-24T05:11:06;15.32;;;5.97;;
1545;SDS011;766;51.502;9.752;2022-11-24T05:13:35;19.05;;;5.25;;
1545;SDS011;766;51.502;9.752;2022-11-24T05:16:03;21.00;;;5.57;;
1545;SDS011;766;51.502;9.752;2022-11-24T05:18:32;22.65;;;6.57;;
1545;SDS011;766;51.502;9.752;2022-11-24T05:21:01;14.85;;;4.72;;
1545;SDS011;766;51.502;9.752;2022-11-24T05:23:31;20.38;;;5.22;;
1545;SDS011;766;51.502;9.752;2022-11-24T05:26:02;18.25;;;5.45;;
1545;SDS011;766;51.502;9.752;2022-11-24T05:28:32;18.00;;;5.20;;
1545;SDS011;766;51.502;9.752;2022-11-24T05:31:02;19.75;;;5.90;;
1545;SDS011;766;51.502;9.752;2022-11-24T05:33:31;23.00;;;5.50;;
1545;SDS011;766;51.502;9.752;2022-11-24T05:36:03;19.85;;;5.30;;
1545;SDS011;766;51.502;9.752;2022-11-24T05:38:34;25.85;;;5.28;;
1545;SDS011;766;51.502;9.752;2022-11-24T05:41:03;20.13;;;4.72;;
1545;SDS011;766;51.502;9.752;2022-11-24T05:43:32;16.52;;;4.90;;
1545;SDS011;766;51.502;9.752;2022-11-24T05:46:01;17.73;;;4.82;;
1545;SDS011;766;51.502;9.752;2022-11-24T05:48:29;26.50;;;5.88;;
1545;SDS011;766;51.502;9.752;2022-11-24T05:50:57;23.13;;;5.35;;
1545;SDS011;766;51.502;9.752;2022-11-24T05:53:33;26.13;;;6.13;;
1545;SDS011;766;51.502;9.752;2022-11-24T05:56:01;25.67;;;5.25;;
1545;SDS011;766;51.502;9.752;2022-11-24T05:58:30;23.98;;;5.28;;
1545;SDS011;766;51.502;9.752;2022-11-24T06:00:58;23.27;;;4.88;;
1545;SDS011;766;51.502;9.752;2022-11-24T06:03:27;13.48;;;4.25;;
1545;SDS011;766;51.502;9.752;2022-11-24T06:05:55;20.10;;;5.05;;
1545;SDS011;766;51.502;9.752;2022-11-24T06:08:24;19.23;;;4.80;;
1545;SDS011;766;51.502;9.752;2022-11-24T06:10:59;20.75;;;4.93;;
1545;SDS011;766;51.502;9.752;2022-11-24T06:13:43;14.68;;;4.93;;
1545;SDS011;766;51.502;9.752;2022-11-24T06:16:12;23.15;;;5.50;;
1545;SDS011;766;51.502;9.752;2022-11-24T06:18:43;22.55;;;5.40;;
1545;SDS011;766;51.502;9.752;2022-11-24T06:21:12;13.18;;;4.90;;
1545;SDS011;766;51.502;9.752;2022-11-24T06:23:40;22.33;;;4.97;;
1545;SDS011;766;51.502;9.752;2022-11-24T06:26:11;23.75;;;4.70;;
1545;SDS011;766;51.502;9.752;2022-11-24T06:28:42;16.60;;;4.75;;
1545;SDS011;766;51.502;9.752;2022-11-24T06:31:11;17.98;;;4.40;;
1545;SDS011;766;51.502;9.752;2022-11-24T06:33:41;17.17;;;4.13;;
1545;SDS011;766;51.502;9.752;2022-11-24T06:36:09;18.45;;;4.80;;
1545;SDS011;766;51.502;9.752;2022-11-24T06:38:39;14.20;;;4.22;;
1545;SDS011;766;51.502;9.752;2022-11-24T06:41:08;23.25;;;4.53;;
1545;SDS011;766;51.502;9.752;2022-11-24T06:43:42;27.83;;;5.38;;
1545;SDS011;766;51.502;9.752;2022-11-24T06:46:11;18.98;;;4.93;;
1545;SDS011;766;51.502;9.752;2022-11-24T06:48:41;18.08;;;3.78;;
1545;SDS011;766;51.502;9.752;2022-11-24T06:51:12;20.05;;;5.03;;
1545;SDS011;766;51.502;9.752;2022-11-24T06:53:41;19.85;;;5.03;;
1545;SDS011;766;51.502;9.752;2022-11-24T06:56:09;16.90;;;4.22;;
1545;SDS011;766;51.502;9.752;2022-11-24T06:58:45;21.05;;;4.72;;
1545;SDS011;766;51.502;9.752;2022-11-24T07:01:15;20.38;;;5.65;;
1545;SDS011;766;51.502;9.752;2022-11-24T07:03:44;14.40;;;4.80;;
1545;SDS011;766;51.502;9.752;2022-11-24T07:06:13;21.25;;;4.78;;
1545;SDS011;766;51.502;9.752;2022-11-24T07:08:41;24.33;;;4.55;;
1545;SDS011;766;51.502;9.752;2022-11-24T07:11:13;21.15;;;4.65;;
1545;SDS011;766;51.502;9.752;2022-11-24T07:13:43;17.58;;;5.05;;
1545;SDS011;766;51.502;9.752;2022-11-24T07:16:12;24.38;;;5.32;;
1545;SDS011;766;51.502;9.752;2022-11-24T07:18:42;19.77;;;5.15;;
1545;SDS011;766;51.502;9.752;2022-11-24T07:21:11;21.20;;;4.95;;
1545;SDS011;766;51.502;9.752;2022-11-24T07:23:40;24.48;;;7.00;;
1545;SDS011;766;51.502;9.752;2022-11-24T07:26:09;20.13;;;4.20;;
1545;SDS011;766;51.502;9.752;2022-11-24T07:28:39;21.70;;;4.40;;
1545;SDS011;766;51.502;9.752;2022-11-24T07:31:11;23.88;;;5.15;;
1545;SDS011;766;51.502;9.752;2022-11-24T07:33:41;15.82;;;5.22;;
1545;SDS011;766;51.502;9.752;2022-11-24T07:36:11;22.02;;;4.53;;
1545;SDS011;766;51.502;9.752;2022-11-24T07:38:42;18.60;;;4.07;;
1545;SDS011;766;51.502;9.752;2022-11-24T07:41:12;23.75;;;5.40;;
1545;SDS011;766;51.502;9.752;2022-11-24T07:43:43;23.90;;;4.53;;
1545;SDS011;766;51.502;9.752;2022-11-24T07:46:13;19.92;;;4.15;;
1545;SDS011;766;51.502;9.752;2022-11-24T07:48:43;17.60;;;4.82;;
1545;SDS011;766;51.502;9.752;2022-11-24T07:51:11;18.98;;;3.53;;
1545;SDS011;766;51.502;9.752;2022-11-24T07:53:41;15.45;;;3.70;;
1545;SDS011;766;51.502;9.752;2022-11-24T07:56:10;21.50;;;4.00;;
1545;SDS011;766;51.502;9.752;2022-11-24T07:58:38;20.60;;;4.45;;
1545;SDS011;766;51.502;9.752;2022-11-24T08:01:10;20.08;;;3.40;;
1545;SDS011;766;51.502;9.752;2022-11-24T08:03:41;19.65;;;3.75;;
1545;SDS011;766;51.502;9.752;2022-11-24T08:06:12;11.52;;;3.20;;
1545;SDS011;766;51.502;9.752;2022-11-24T08:08:54;17.10;;;3.22;;
1545;SDS011;766;51.502;9.752;2022-11-24T08:11:23;13.82;;;4.05;;
1545;SDS011;766;51.502;9.752;2022-11-24T08:13:52;19.73;;;4.00;;
1545;SDS011;766;51.502;9.752;2022-11-24T08:16:23;20.75;;;4.55;;
1545;SDS011;766;51.502;9.752;2022-11-24T08:18:53;25.35;;;3.67;;
1545;SDS011;766;51.502;9.752;2022-11-24T08:21:23;13.27;;;3.70;;
1545;SDS011;766;51.502;9.752;2022-11-24T08:23:53;17.42;;;4.00;;
1545;SDS011;766;51.502;9.752;2022-11-24T08:26:22;17.38;;;3.60;;
1545;SDS011;766;51.502;9.752;2022-11-24T08:28:55;21.02;;;4.18;;
1545;SDS011;766;51.502;9.752;2022-11-24T08:31:26;17.33;;;3.83;;
1545;SDS011;766;51.502;9.752;2022-11-24T08:33:59;13.32;;;3.65;;
1545;SDS011;766;51.502;9.752;2022-11-24T08:36:29;21.40;;;4.00;;
1545;SDS011;766;51.502;9.752;2022-11-24T08:38:59;24.25;;;4.20;;
1545;SDS011;766;51.502;9.752;2022-11-24T08:41:29;20.10;;;5.28;;
1545;SDS011;766;51.502;9.752;2022-11-24T08:44:00;19.38;;;3.92;;
1545;SDS011;766;51.502;9.752;2022-11-24T08:46:30;22.90;;;4.75;;
1545;SDS011;766;51.502;9.752;2022-11-24T08:49:01;25.17;;;4.32;;
1545;SDS011;766;51.502;9.752;2022-11-24T08:51:31;16.42;;;4.05;;
1545;SDS011;766;51.502;9.752;2022-11-24T08:54:01;18.45;;;3.88;;
1545;SDS011;766;51.502;9.752;2022-11-24T08:56:30;16.92;;;3.67;;
1545;SDS011;766;51.502;9.752;2022-11-24T08:58:59;16.90;;;3.85;;
1545;SDS011;766;51.502;9.752;2022-11-24T09:01:32;19.13;;;3.80;;
1545;SDS011;766;51.502;9.752;2022-11-24T09:04:00;28.88;;;5.63;;
1545;SDS011;766;51.502;9.752;2022-11-24T09:06:32;14.85;;;4.10;;
1545;SDS011;766;51.502;9.752;2022-11-24T09:09:01;17.80;;;4.68;;
1545;SDS011;766;51.502;9.752;2022-11-24T09:11:33;23.38;;;3.80;;
1545;SDS011;766;51.502;9.752;2022-11-24T09:14:04;17.70;;;4.18;;
1545;SDS011;766;51.502;9.752;2022-11-24T09:16:34;20.15;;;3.85;;
1545;SDS011;766;51.502;9.752;2022-11-24T09:19:03;20.02;;;3.97;;
1545;SDS011;766;51.502;9.752;2022-11-24T09:21:35;20.55;;;4.38;;
1545;SDS011;766;51.502;9.752;2022-11-24T09:24:06;18.10;;;3.50;;
1545;SDS011;766;51.502;9.752;2022-11-24T09:26:35;23.25;;;5.63;;
1545;SDS011;766;51.502;9.752;2022-11-24T09:29:13;18.88;;;4.65;;
1545;SDS011;766;51.502;9.752;2022-11-24T09:31:46;21.17;;;4.13;;
1545;SDS011;766;51.502;9.752;2022-11-24T09:34:14;17.73;;;3.78;;
1545;SDS011;766;51.502;9.752;2022-11-24T09:36:43;20.23;;;4.57;;
1545;SDS011;766;51.502;9.752;2022-11-24T09:39:12;18.15;;;4.10;;
1545;SDS011;766;51.502;9.752;2022-11-24T09:41:48;19.52;;;4.50;;
1545;SDS011;766;51.502;9.752;2022-11-24T09:44:34;21.23;;;4.13;;
1545;SDS011;766;51.502;9.752;2022-11-24T09:47:17;21.10;;;4.13;;
1545;SDS011;766;51.502;9.752;2022-11-24T09:49:55;17.27;;;4.20;;
1545;SDS011;766;51.502;9.752;2022-11-24T09:52:36;18.05;;;3.78;;
1545;SDS011;766;51.502;9.752;2022-11-24T09:55:14;17.30;;;5.78;;
1545;SDS011;766;51.502;9.752;2022-11-24T09:58:00;16.08;;;4.20;;
1545;SDS011;766;51.502;9.752;2022-11-24T10:00:37;18.88;;;4.18;;
1545;SDS011;766;51.502;9.752;2022-11-24T10:03:11;16.98;;;4.35;;
1545;SDS011;766;51.502;9.752;2022-11-24T10:05:43;17.17;;;4.22;;
1545;SDS011;766;51.502;9.752;2022-11-24T10:08:18;18.17;;;4.45;;
1545;SDS011;766;51.502;9.752;2022-11-24T10:10:55;16.25;;;5.10;;
1545;SDS011;766;51.502;9.752;2022-11-24T10:13:36;23.80;;;4.57;;
1545;SDS011;766;51.502;9.752;2022-11-24T10:16:31;24.27;;;4.43;;
1545;SDS011;766;51.502;9.752;2022-11-24T10:19:13;20.13;;;5.00;;
1545;SDS011;766;51.502;9.752;2022-11-24T10:22:06;24.65;;;4.97;;
1545;SDS011;766;51.502;9.752;2022-11-24T10:24:49;22.80;;;5.03;;
1545;SDS011;766;51.502;9.752;2022-11-24T10:27:34;21.48;;;5.47;;
1545;SDS011;766;51.502;9.752;2022-11-24T10:30:11;18.67;;;5.05;;
1545;SDS011;766;51.502;9.752;2022-11-24T10:32:44;18.73;;;5.05;;
1545;SDS011;766;51.502;9.752;2022-11-24T10:35:19;23.27;;;5.05;;
1545;SDS011;766;51.502;9.752;2022-11-24T10:37:56;21.40;;;4.45;;
1545;SDS011;766;51.502;9.752;2022-11-24T10:40:34;26.17;;;5.32;;
1545;SDS011;766;51.502;9.752;2022-11-24T10:43:24;16.42;;;4.65;;
1545;SDS011;766;51.502;9.752;2022-11-24T10:45:57;17.75;;;4.30;;
1545;SDS011;766;51.502;9.752;2022-11-24T10:48:36;23.17;;;5.03;;
1545;SDS011;766;51.502;9.752;2022-11-24T10:51:19;21.15;;;5.45;;
1545;SDS011;766;51.502;9.752;2022-11-24T10:54:10;20.88;;;4.60;;
1545;SDS011;766;51.502;9.752;2022-11-24T10:56:46;22.50;;;4.60;;
1545;SDS011;766;51.502;9.752;2022-11-24T10:59:21;29.65;;;5.50;;
1545;SDS011;766;51.502;9.752;2022-11-24T11:10:46;11.63;;;4.00;;
1545;SDS011;766;51.502;9.752;2022-11-24T11:13:20;18.08;;;4.13;;
1545;SDS011;766;51.502;9.752;2022-11-24T11:15:58;21.95;;;4.22;;
1545;SDS011;766;51.502;9.752;2022-11-24T11:18:29;16.55;;;4.05;;
1545;SDS011;766;51.502;9.752;2022-11-24T11:20:59;19.20;;;3.83;;
1545;SDS011;766;51.502;9.752;2022-11-24T11:23:32;15.77;;;3.65;;
1545;SDS011;766;51.502;9.752;2022-11-24T11:26:18;15.00;;;3.40;;
1545;SDS011;766;51.502;9.752;2022-11-24T11:28:58;16.80;;;3.47;;
1545;SDS011;766;51.502;9.752;2022-11-24T11:31:56;11.80;;;3.42;;
1545;SDS011;766;51.502;9.752;2022-11-24T11:34:46;18.50;;;3.80;;
1545;SDS011;766;51.502;9.752;2022-11-24T11:37:15;16.35;;;3.85;;
1545;SDS011;766;51.502;9.752;2022-11-24T11:39:47;10.95;;;3.28;;
1545;SDS011;766;51.502;9.752;2022-11-24T11:42:21;14.93;;;4.07;;
1545;SDS011;766;51.502;9.752;2022-11-24T11:45:30;26.05;;;4.00;;
1545;SDS011;766;51.502;9.752;2022-11-24T11:48:07;13.35;;;3.35;;
1545;SDS011;766;51.502;9.752;2022-11-24T11:50:48;19.48;;;3.88;;
1545;SDS011;766;51.502;9.752;2022-11-24T11:53:41;18.92;;;4.13;;
1545;SDS011;766;51.502;9.752;2022-11-24T11:56:20;17.33;;;3.53;;
1545;SDS011;766;51.502;9.752;2022-11-24T12:02:17;9.25;;;2.83;;
1545;SDS011;766;51.502;9.752;2022-11-24T12:05:09;11.02;;;2.78;;
1545;SDS011;766;51.502;9.752;2022-11-24T12:07:48;15.00;;;2.88;;
1545;SDS011;766;51.502;9.752;2022-11-24T12:10:40;17.65;;;3.40;;
1545;SDS011;766;51.502;9.752;2022-11-24T12:13:18;10.43;;;3.17;;
1545;SDS011;766;51.502;9.752;2022-11-24T12:16:10;12.80;;;2.70;;
1545;SDS011;766;51.502;9.752;2022-11-24T12:19:00;16.35;;;2.80;;
1545;SDS011;766;51.502;9.752;2022-11-24T12:21:42;14.20;;;3.20;;
1545;SDS011;766;51.502;9.752;2022-11-24T12:24:16;10.05;;;2.75;;
1545;SDS011;766;51.502;9.752;2022-11-24T12:26:52;15.60;;;2.97;;
1545;SDS011;766;51.502;9.752;2022-11-24T12:32:36;11.65;;;2.80;;
1545;SDS011;766;51.502;9.752;2022-11-24T12:35:22;12.48;;;2.60;;
1545;SDS011;766;51.502;9.752;2022-11-24T12:37:58;9.88;;;2.25;;
1545;SDS011;766;51.502;9.752;2022-11-24T12:40:44;8.77;;;2.42;;
1545;SDS011;766;51.502;9.752;2022-11-24T12:43:54;17.95;;;3.03;;
1545;SDS011;766;51.502;9.752;2022-11-24T12:46:30;13.45;;;3.05;;
1545;SDS011;766;51.502;9.752;2022-11-24T12:49:10;12.70;;;2.53;;
1545;SDS011;766;51.502;9.752;2022-11-24T12:51:47;14.20;;;2.55;;
1545;SDS011;766;51.502;9.752;2022-11-24T12:54:20;9.88;;;2.65;;
1545;SDS011;766;51.502;9.752;2022-11-24T12:56:50;9.70;;;2.65;;
1545;SDS011;766;51.502;9.752;2022-11-24T12:59:26;11.88;;;2.78;;
1545;SDS011;766;51.502;9.752;2022-11-24T13:02:03;13.45;;;2.58;;
1545;SDS011;766;51.502;9.752;2022-11-24T13:04:48;12.88;;;2.70;;
1545;SDS011;766;51.502;9.752;2022-11-24T13:07:22;12.15;;;2.75;;
1545;SDS011;766;51.502;9.752;2022-11-24T13:13:16;8.23;;;2.55;;
1545;SDS011;766;51.502;9.752;2022-11-24T13:19:11;7.28;;;2.03;;
1545;SDS011;766;51.502;9.752;2022-11-24T13:21:48;6.50;;;1.77;;
1545;SDS011;766;51.502;9.752;2022-11-24T13:24:31;5.63;;;1.60;;
1545;SDS011;766;51.502;9.752;2022-11-24T13:27:22;2.45;;;1.10;;
1545;SDS011;766;51.502;9.752;2022-11-24T13:33:17;7.70;;;1.70;;
1545;SDS011;766;51.502;9.752;2022-11-24T13:39:20;6.15;;;1.42;;
1545;SDS011;766;51.502;9.752;2022-11-24T13:44:57;5.05;;;1.88;;
1545;SDS011;766;51.502;9.752;2022-11-24T13:47:39;4.60;;;1.17;;
1545;SDS011;766;51.502;9.752;2022-11-24T13:50:12;2.03;;;1.30;;
1545;SDS011;766;51.502;9.752;2022-11-24T13:52:53;4.80;;;1.33;;
1545;SDS011;766;51.502;9.752;2022-11-24T13:55:31;5.30;;;1.52;;
1545;SDS011;766;51.502;9.752;2022-11-24T13:58:05;9.38;;;1.70;;
1545;SDS011;766;51.502;9.752;2022-11-24T14:00:57;5.43;;;1.38;;
1545;SDS011;766;51.502;9.752;2022-11-24T14:03:37;4.15;;;1.50;;
1545;SDS011;766;51.502;9.752;2022-11-24T14:06:32;2.42;;;1.20;;
1545;SDS011;766;51.502;9.752;2022-11-24T14:09:12;2.63;;;1.40;;
1545;SDS011;766;51.502;9.752;2022-11-24T14:12:00;3.90;;;1.45;;
1545;SDS011;766;51.502;9.752;2022-11-24T14:14:33;2.78;;;1.50;;
1545;SDS011;766;51.502;9.752;2022-11-24T14:19:50;4.03;;;1.60;;
1545;SDS011;766;51.502;9.752;2022-11-24T14:22:20;9.05;;;1.50;;
1545;SDS011;766;51.502;9.752;2022-11-24T14:24:54;3.38;;;1.50;;
1545;SDS011;766;51.502;9.752;2022-11-24T14:27:25;5.97;;;2.15;;
1545;SDS011;766;51.502;9.752;2022-11-24T14:29:58;6.53;;;1.90;;
1545;SDS011;766;51.502;9.752;2022-11-24T14:32:30;5.78;;;2.03;;
1545;SDS011;766;51.502;9.752;2022-11-24T14:34:58;5.65;;;1.52;;
1545;SDS011;766;51.502;9.752;2022-11-24T14:37:29;6.18;;;1.50;;
1545;SDS011;766;51.502;9.752;2022-11-24T14:39:59;6.78;;;1.65;;
1545;SDS011;766;51.502;9.752;2022-11-24T14:42:27;9.57;;;1.40;;
1545;SDS011;766;51.502;9.752;2022-11-24T14:45:03;4.53;;;1.75;;
1545;SDS011;766;51.502;9.752;2022-11-24T14:47:32;6.97;;;1.63;;
1545;SDS011;766;51.502;9.752;2022-11-24T14:50:08;5.03;;;1.50;;
1545;SDS011;766;51.502;9.752;2022-11-24T14:52:44;4.63;;;1.42;;
1545;SDS011;766;51.502;9.752;2022-11-24T14:55:26;3.90;;;1.40;;
1545;SDS011;766;51.502;9.752;2022-11-24T14:57:56;3.92;;;1.20;;
1545;SDS011;766;51.502;9.752;2022-11-24T15:00:26;5.55;;;1.15;;
1545;SDS011;766;51.502;9.752;2022-11-24T15:03:08;3.67;;;1.42;;
1545;SDS011;766;51.502;9.752;2022-11-24T15:05:49;5.00;;;1.40;;
1545;SDS011;766;51.502;9.752;2022-11-24T15:08:19;4.72;;;1.35;;
1545;SDS011;766;51.502;9.752;2022-11-24T15:11:00;7.68;;;1.42;;
1545;SDS011;766;51.502;9.752;2022-11-24T15:13:33;3.30;;;1.27;;
1545;SDS011;766;51.502;9.752;2022-11-24T15:16:04;2.95;;;1.23;;
1545;SDS011;766;51.502;9.752;2022-11-24T15:18:38;3.35;;;1.13;;
1545;SDS011;766;51.502;9.752;2022-11-24T15:21:09;4.57;;;1.40;;
1545;SDS011;766;51.502;9.752;2022-11-24T15:26:33;4.35;;;1.67;;
1545;SDS011;766;51.502;9.752;2022-11-24T15:29:07;6.90;;;1.60;;
1545;SDS011;766;51.502;9.752;2022-11-24T15:31:37;3.85;;;1.58;;
1545;SDS011;766;51.502;9.752;2022-11-24T15:34:06;4.05;;;1.48;;
1545;SDS011;766;51.502;9.752;2022-11-24T15:36:38;3.45;;;1.48;;
1545;SDS011;766;51.502;9.752;2022-11-24T15:39:06;3.88;;;1.35;;
1545;SDS011;766;51.502;9.752;2022-11-24T15:41:39;3.67;;;1.20;;
1545;SDS011;766;51.502;9.752;2022-11-24T15:44:08;7.15;;;1.77;;
1545;SDS011;766;51.502;9.752;2022-11-24T15:46:37;3.67;;;1.25;;
1545;SDS011;766;51.502;9.752;2022-11-24T15:49:07;3.75;;;1.50;;
1545;SDS011;766;51.502;9.752;2022-11-24T15:51:37;3.88;;;1.25;;
1545;SDS011;766;51.502;9.752;2022-11-24T15:54:10;3.47;;;1.60;;
1545;SDS011;766;51.502;9.752;2022-11-24T15:56:43;7.28;;;1.40;;
1545;SDS011;766;51.502;9.752;2022-11-24T15:59:14;3.58;;;1.40;;
1545;SDS011;766;51.502;9.752;2022-11-24T16:01:46;5.32;;;1.38;;
1545;SDS011;766;51.502;9.752;2022-11-24T16:04:16;5.35;;;1.48;;
1545;SDS011;766;51.502;9.752;2022-11-24T16:06:45;4.32;;;1.27;;
1545;SDS011;766;51.502;9.752;2022-11-24T16:09:14;5.78;;;1.80;;
1545;SDS011;766;51.502;9.752;2022-11-24T16:11:44;4.63;;;1.70;;
1545;SDS011;766;51.502;9.752;2022-11-24T16:14:14;3.70;;;1.42;;
1545;SDS011;766;51.502;9.752;2022-11-24T16:16:42;3.10;;;1.52;;
1545;SDS011;766;51.502;9.752;2022-11-24T16:19:11;5.65;;;1.80;;
1545;SDS011;766;51.502;9.752;2022-11-24T16:21:41;7.43;;;2.15;;
1545;SDS011;766;51.502;9.752;2022-11-24T16:24:09;6.05;;;1.80;;
1545;SDS011;766;51.502;9.752;2022-11-24T16:26:38;6.05;;;2.10;;
1545;SDS011;766;51.502;9.752;2022-11-24T16:29:10;3.15;;;1.70;;
1545;SDS011;766;51.502;9.752;2022-11-24T16:31:38;3.78;;;1.85;;